Time;durP1;ratioP1;P1;durP2;ratioP2;P2;SDS_P1;SDS_P2;PMS_P1;PMS_P2;Temp;Humidity;BMP_temperature;BMP_pressure;BME280_temperature;BME280_humidity;BME280_pressure;Samples;Min_cycle;Max_cycle;Signal;HPM_P1;HPM_P2
2023/09/19 00:01:41;;;;;;;9.30;1.95;;;;;;;14.01;100.00;100673.72;4979182;28;20113;-70
2023/09/19 00:04:09;;;;;;;9.82;2.55;;;;;;;13.96;100.00;100676.00;4948648;28;20032;-70
2023/09/19 00:06:38;;;;;;;10.77;3.08;;;;;;;13.94;100.00;100686.19;4979899;28;20043;-70
2023/09/19 00:09:04;;;;;;;13.82;3.03;;;;;;;13.91;100.00;100684.63;4963378;28;20569;-71
2023/09/19 00:11:29;;;;;;;12.85;2.40;;;;;;;13.89;100.00;100691.22;4948559;29;20043;-70
2023/09/19 00:13:54;;;;;;;14.27;2.20;;;;;;;13.84;100.00;100691.63;4980808;28;20027;-69
2023/09/19 00:16:20;;;;;;;12.13;3.03;;;;;;;13.82;100.00;100695.50;4966562;28;20685;-71
2023/09/19 00:18:46;;;;;;;10.25;3.45;;;;;;;13.79;100.00;100702.09;4952194;28;20878;-70
2023/09/19 00:21:12;;;;;;;15.18;2.67;;;;;;;13.76;100.00;100694.19;4952249;29;20090;-71
2023/09/19 00:23:38;;;;;;;15.93;3.17;;;;;;;13.75;100.00;100697.91;4951817;28;20039;-70
2023/09/19 00:26:04;;;;;;;13.90;2.58;;;;;;;13.72;100.00;100704.53;4966513;28;20050;-70
2023/09/19 00:28:29;;;;;;;11.52;2.53;;;;;;;13.71;100.00;100713.72;4952040;29;20399;-70
2023/09/19 00:30:55;;;;;;;9.95;2.45;;;;;;;13.70;100.00;100713.84;4952041;29;20514;-70
2023/09/19 00:33:21;;;;;;;10.13;2.33;;;;;;;13.68;100.00;100719.47;4952160;28;20471;-71
2023/09/19 00:35:51;;;;;;;17.60;2.70;;;;;;;13.64;100.00;100718.00;4966682;28;20087;-70
2023/09/19 00:38:20;;;;;;;13.40;2.42;;;;;;;13.63;100.00;100729.94;4951543;28;20102;-70
2023/09/19 00:40:47;;;;;;;16.08;2.67;;;;;;;13.63;100.00;100719.00;4957090;28;20559;-70
2023/09/19 00:43:12;;;;;;;11.05;2.35;;;;;;;13.60;100.00;100724.72;4963023;28;20071;-71
2023/09/19 00:45:39;;;;;;;15.30;2.60;;;;;;;13.57;100.00;100727.75;4951129;28;20070;-71
2023/09/19 00:48:06;;;;;;;9.18;2.28;;;;;;;13.55;100.00;100728.88;4951731;28;20451;-70
2023/09/19 00:50:32;;;;;;;11.18;2.47;;;;;;;13.55;100.00;100739.78;4951687;29;20495;-70
2023/09/19 00:52:58;;;;;;;10.88;2.50;;;;;;;13.53;100.00;100740.81;4982547;28;20608;-70
2023/09/19 00:55:25;;;;;;;17.88;2.38;;;;;;;13.53;100.00;100748.13;4951524;29;20496;-71
2023/09/19 00:57:52;;;;;;;12.05;2.55;;;;;;;13.50;100.00;100749.25;4952041;28;20067;-70
2023/09/19 01:00:19;;;;;;;11.02;2.40;;;;;;;13.48;100.00;100755.88;4981665;28;20075;-70
2023/09/19 01:02:46;;;;;;;15.77;2.30;;;;;;;13.45;100.00;100758.84;4951393;28;20492;-71
2023/09/19 01:05:13;;;;;;;6.78;1.98;;;;;;;13.43;100.00;100758.09;4951373;28;20041;-71
2023/09/19 01:07:41;;;;;;;17.02;2.47;;;;;;;13.40;100.00;100761.97;4951419;28;20071;-69
2023/09/19 01:10:21;;;;;;;7.68;2.25;;;;;;;13.40;100.00;100755.66;4950657;29;20023;-71
2023/09/19 01:13:04;;;;;;;13.18;2.45;;;;;;;13.38;100.00;100761.25;4951202;28;20122;-71
2023/09/19 01:15:42;;;;;;;16.15;2.45;;;;;;;13.36;100.00;100751.44;4981531;28;20108;-70
2023/09/19 01:18:20;;;;;;;10.27;2.08;;;;;;;13.34;100.00;100748.84;4951188;28;20043;-70
2023/09/19 01:21:23;;;;;;;11.15;2.67;;;;;;;13.32;99.65;100760.91;4951211;29;20755;-71
2023/09/19 01:24:22;;;;;;;13.73;2.92;;;;;;;13.30;99.77;100768.38;4950752;28;20178;-70
2023/09/19 01:27:00;;;;;;;12.65;2.78;;;;;;;13.25;99.56;100769.63;4949456;29;20047;-70
2023/09/19 01:29:46;;;;;;;13.25;2.28;;;;;;;13.21;99.47;100770.84;4970268;28;20156;-70
2023/09/19 01:32:16;;;;;;;9.35;2.17;;;;;;;13.19;99.45;100783.75;4967779;28;20038;-70
2023/09/19 01:34:49;;;;;;;12.80;2.38;;;;;;;13.15;99.76;100782.31;4950326;28;20106;-71
2023/09/19 01:37:20;;;;;;;11.98;2.72;;;;;;;13.16;99.73;100789.50;4950665;28;20039;-71
2023/09/19 01:39:48;;;;;;;9.60;2.22;;;;;;;13.13;99.96;100787.00;4950195;29;20483;-70
2023/09/19 01:42:37;;;;;;;12.48;2.47;;;;;;;13.11;99.68;100783.56;4980705;28;20019;-70
2023/09/19 01:45:12;;;;;;;12.07;2.58;;;;;;;13.09;99.80;100795.59;4948950;29;20054;-70
2023/09/19 01:47:49;;;;;;;18.88;2.60;;;;;;;13.07;99.60;100789.41;4949373;28;20043;-70
2023/09/19 01:50:40;;;;;;;10.30;2.50;;;;;;;13.05;99.32;100789.50;4965668;28;20494;-69
2023/09/19 01:53:30;;;;;;;12.48;2.70;;;;;;;13.05;98.61;100784.06;4950544;28;20031;-69
2023/09/19 01:55:57;;;;;;;9.55;2.10;;;;;;;13.04;98.49;100790.50;4950655;29;20054;-69
2023/09/19 01:58:43;;;;;;;10.23;3.55;;;;;;;13.02;98.29;100790.66;4965671;28;20114;-70
2023/09/19 02:01:13;;;;;;;13.32;2.28;;;;;;;12.98;99.00;100788.31;4980512;28;20419;-69
2023/09/19 02:03:40;;;;;;;9.23;2.60;;;;;;;12.95;98.94;100786.69;4950145;28;20495;-70
2023/09/19 02:06:11;;;;;;;12.10;2.42;;;;;;;12.93;98.26;100777.78;4950466;29;20102;-70
2023/09/19 02:08:36;;;;;;;9.07;2.65;;;;;;;12.93;97.84;100785.97;4950020;28;20494;-70
2023/09/19 02:11:02;;;;;;;17.50;2.78;;;;;;;12.92;97.79;100784.22;4949971;29;20038;-70
2023/09/19 02:13:28;;;;;;;11.48;2.33;;;;;;;12.92;97.06;100783.38;4980982;28;20213;-70
2023/09/19 02:15:53;;;;;;;11.95;2.50;;;;;;;12.91;96.38;100779.75;4980938;28;20019;-70
2023/09/19 02:18:19;;;;;;;12.27;2.40;;;;;;;12.90;96.86;100783.47;4950088;28;20547;-70
2023/09/19 02:20:45;;;;;;;13.73;2.50;;;;;;;12.88;96.66;100787.34;4964795;28;20023;-70
2023/09/19 02:23:12;;;;;;;9.82;1.80;;;;;;;12.86;96.90;100794.78;4949418;28;20391;-71
2023/09/19 02:25:40;;;;;;;15.65;2.50;;;;;;;12.83;96.51;100793.19;4964114;28;20039;-69
2023/09/19 02:28:06;;;;;;;11.57;2.30;;;;;;;12.78;96.24;100789.97;4980942;28;20121;-70
2023/09/19 02:30:32;;;;;;;8.82;2.10;;;;;;;12.77;96.33;100791.81;4963960;28;20539;-69
2023/09/19 02:33:01;;;;;;;5.55;1.90;;;;;;;12.75;96.16;100795.69;4979988;28;20479;-70
2023/09/19 02:35:27;;;;;;;8.27;1.85;;;;;;;12.72;96.47;100806.84;4964490;28;20035;-71
2023/09/19 02:37:53;;;;;;;12.77;2.58;;;;;;;12.67;95.96;100792.69;4980780;28;20027;-70
2023/09/19 02:40:19;;;;;;;9.10;1.95;;;;;;;12.66;96.54;100808.22;4948887;28;20045;-71
2023/09/19 02:42:52;;;;;;;9.10;2.65;;;;;;;12.62;96.72;100800.41;4949790;28;20042;-69
2023/09/19 02:45:18;;;;;;;10.25;2.00;;;;;;;12.63;96.21;100807.59;4963833;28;20097;-69
2023/09/19 02:47:44;;;;;;;9.73;2.30;;;;;;;12.59;96.00;100808.81;4967037;28;20050;-71
2023/09/19 02:50:13;;;;;;;12.50;2.22;;;;;;;12.58;96.39;100801.63;4949720;28;20391;-71
2023/09/19 02:52:43;;;;;;;8.75;2.22;;;;;;;12.55;96.85;100801.91;4949564;28;20035;-69
2023/09/19 02:55:09;;;;;;;9.02;2.85;;;;;;;12.50;96.97;100805.00;4949018;28;20503;-70
2023/09/19 02:57:36;;;;;;;10.18;2.35;;;;;;;12.46;96.00;100807.13;4964442;28;20027;-70
2023/09/19 03:00:06;;;;;;;9.55;2.00;;;;;;;12.45;95.97;100804.50;4963887;28;20408;-70
2023/09/19 03:02:34;;;;;;;10.30;2.25;;;;;;;12.45;95.25;100805.38;4980426;28;20657;-70
2023/09/19 03:05:00;;;;;;;6.13;2.05;;;;;;;12.44;95.22;100808.22;4964057;28;20407;-70
2023/09/19 03:07:25;;;;;;;10.43;1.98;;;;;;;12.41;95.23;100813.94;4980752;28;20042;-70
2023/09/19 03:09:52;;;;;;;12.02;2.17;;;;;;;12.36;94.63;100808.84;4949550;28;20042;-71
2023/09/19 03:12:18;;;;;;;14.93;3.05;;;;;;;12.36;95.44;100813.44;4963976;28;20039;-70
2023/09/19 03:14:43;;;;;;;10.60;2.65;;;;;;;12.34;94.66;100809.97;4979597;28;20023;-71
2023/09/19 03:17:09;;;;;;;12.18;2.42;;;;;;;12.33;94.16;100803.63;4997667;28;20035;-71
2023/09/19 03:19:34;;;;;;;11.63;2.17;;;;;;;12.33;93.73;100808.22;4980259;28;20226;-69
2023/09/19 03:22:00;;;;;;;11.25;2.53;;;;;;;12.33;93.91;100809.09;4980355;28;20407;-70
2023/09/19 03:24:26;;;;;;;8.38;2.42;;;;;;;12.32;93.69;100810.09;4949118;28;20027;-71
2023/09/19 03:26:52;;;;;;;9.38;2.28;;;;;;;12.32;94.25;100812.81;4980388;28;20035;-70
2023/09/19 03:29:18;;;;;;;10.77;1.95;;;;;;;12.34;92.18;100819.00;4980268;28;20364;-70
2023/09/19 03:31:45;;;;;;;8.93;1.92;;;;;;;12.35;94.02;100809.81;4963137;28;20073;-70
2023/09/19 03:34:11;;;;;;;7.80;2.03;;;;;;;12.35;93.58;100817.16;4964305;28;20031;-69
2023/09/19 03:36:37;;;;;;;9.93;2.20;;;;;;;12.31;93.22;100800.19;4980019;28;20039;-69
2023/09/19 03:39:04;;;;;;;10.10;1.92;;;;;;;12.32;93.73;100812.81;4979656;28;20038;-69
2023/09/19 03:41:31;;;;;;;6.78;2.05;;;;;;;12.34;92.88;100807.22;4963311;28;20074;-70
2023/09/19 03:43:57;;;;;;;11.57;2.08;;;;;;;12.32;94.25;100806.50;4963789;28;20388;-70
2023/09/19 03:46:22;;;;;;;6.60;1.80;;;;;;;12.29;94.17;100801.28;4963994;28;20082;-70
2023/09/19 03:48:48;;;;;;;10.05;2.38;;;;;;;12.24;93.76;100794.31;4964367;28;20039;-71
2023/09/19 03:51:13;;;;;;;9.13;2.05;;;;;;;12.26;94.55;100799.66;4983698;28;20052;-70
2023/09/19 03:53:39;;;;;;;10.07;1.80;;;;;;;12.25;94.89;100789.75;4983384;28;20031;-70
2023/09/19 03:56:04;;;;;;;14.80;2.95;;;;;;;12.30;94.75;100794.81;4967022;28;20137;-69
2023/09/19 03:58:34;;;;;;;10.98;2.90;;;;;;;12.31;94.55;100807.47;4983520;28;20042;-69
2023/09/19 04:00:59;;;;;;;10.35;2.72;;;;;;;12.33;95.35;100800.91;4982437;28;20157;-69
2023/09/19 04:03:34;;;;;;;10.15;2.17;;;;;;;12.35;95.12;100798.91;4982859;28;20471;-70
2023/09/19 04:06:00;;;;;;;12.45;2.45;;;;;;;12.40;95.24;100798.53;4982601;28;20046;-70
2023/09/19 04:08:26;;;;;;;8.68;1.85;;;;;;;12.37;94.97;100790.63;4949856;28;20521;-70
2023/09/19 04:10:52;;;;;;;9.68;2.35;;;;;;;12.41;95.40;100803.03;4951752;28;20067;-70
2023/09/19 04:13:17;;;;;;;6.85;2.05;;;;;;;12.42;95.27;100794.72;4951877;29;20483;-69
2023/09/19 04:15:43;;;;;;;11.88;2.35;;;;;;;12.42;95.74;100788.38;4981738;28;20109;-69
2023/09/19 04:18:08;;;;;;;12.07;2.28;;;;;;;12.44;95.44;100792.72;4990705;28;20042;-70
2023/09/19 04:20:34;;;;;;;8.45;1.98;;;;;;;12.46;95.75;100798.06;5001905;28;20045;-70
2023/09/19 04:23:00;;;;;;;10.90;2.40;;;;;;;12.46;95.80;100815.31;4995740;28;20483;-71
2023/09/19 04:25:26;;;;;;;11.98;2.13;;;;;;;12.47;96.33;100821.63;4952046;29;20043;-70
2023/09/19 04:27:52;;;;;;;13.18;2.00;;;;;;;12.49;96.49;100833.28;4983771;28;20137;-69
2023/09/19 04:30:17;;;;;;;10.45;1.70;;;;;;;12.49;96.24;100823.22;4951498;29;20526;-70
2023/09/19 04:32:42;;;;;;;7.75;2.42;;;;;;;12.50;96.13;100822.25;4951893;28;20475;-69
2023/09/19 04:35:10;;;;;;;11.38;2.10;;;;;;;12.52;96.23;100836.63;4951898;28;20049;-70
2023/09/19 04:37:39;;;;;;;13.27;1.88;;;;;;;12.51;96.57;100837.63;4952476;28;20050;-70
2023/09/19 04:40:10;;;;;;;8.05;2.08;;;;;;;12.55;97.11;100840.97;4951096;28;20069;-69
2023/09/19 04:42:40;;;;;;;12.35;2.40;;;;;;;12.58;96.48;100853.50;4982478;28;20468;-70
2023/09/19 04:45:07;;;;;;;11.60;2.85;;;;;;;12.62;97.23;100857.72;4950993;28;20480;-70
2023/09/19 04:47:32;;;;;;;10.55;2.40;;;;;;;12.66;96.97;100865.53;4981123;28;20123;-70
2023/09/19 04:49:58;;;;;;;11.82;1.95;;;;;;;12.71;96.54;100868.75;4951810;29;20121;-70
2023/09/19 04:52:24;;;;;;;13.77;2.60;;;;;;;12.74;96.65;100865.78;4952319;28;20398;-70
2023/09/19 04:54:49;;;;;;;8.32;2.38;;;;;;;12.79;96.33;100867.28;4951237;28;20119;-69
2023/09/19 04:57:15;;;;;;;10.30;3.15;;;;;;;12.81;96.38;100870.75;4951494;29;20734;-70
2023/09/19 04:59:41;;;;;;;10.38;2.60;;;;;;;12.81;96.30;100871.59;4980965;28;20045;-70
2023/09/19 05:02:08;;;;;;;10.10;2.05;;;;;;;12.78;96.19;100871.88;4982431;28;20153;-70
2023/09/19 05:04:33;;;;;;;14.77;3.00;;;;;;;12.77;96.19;100873.72;4951513;29;20530;-71
2023/09/19 05:06:59;;;;;;;7.53;2.13;;;;;;;12.75;96.19;100870.25;4951422;28;20074;-70
2023/09/19 05:09:25;;;;;;;10.23;1.98;;;;;;;12.76;96.21;100876.56;4982826;28;20996;-70
2023/09/19 05:11:52;;;;;;;11.68;2.50;;;;;;;12.72;96.81;100870.47;4965887;28;20035;-70
2023/09/19 05:14:18;;;;;;;5.10;1.73;;;;;;;12.73;96.38;100863.19;4951263;29;20043;-69
2023/09/19 05:16:43;;;;;;;7.75;2.30;;;;;;;12.73;97.02;100874.13;4965249;28;20023;-70
2023/09/19 05:19:11;;;;;;;6.50;1.90;;;;;;;12.73;97.48;100874.13;4981921;28;20039;-69
2023/09/19 05:21:38;;;;;;;12.07;2.20;;;;;;;12.72;96.94;100881.41;4951125;29;20086;-69
2023/09/19 05:24:06;;;;;;;5.55;2.28;;;;;;;12.72;97.11;100880.53;4965669;28;20035;-69
2023/09/19 05:26:32;;;;;;;12.98;2.65;;;;;;;12.69;97.56;100884.41;4950931;29;20062;-69
2023/09/19 05:28:58;;;;;;;12.90;2.70;;;;;;;12.68;97.55;100881.78;4950677;28;20082;-69
2023/09/19 05:31:25;;;;;;;11.30;2.13;;;;;;;12.67;97.80;100880.03;4952297;28;20562;-69
2023/09/19 05:33:51;;;;;;;8.38;2.17;;;;;;;12.68;98.00;100877.22;4954182;28;20042;-69
2023/09/19 05:36:16;;;;;;;10.77;2.28;;;;;;;12.70;98.19;100883.41;5001242;28;20487;-69
2023/09/19 05:38:42;;;;;;;11.70;2.47;;;;;;;12.70;98.41;100877.94;4992103;28;20148;-70
2023/09/19 05:41:09;;;;;;;10.80;2.38;;;;;;;12.71;nan;100884.28;4969439;28;20147;-70
2023/09/19 05:43:37;;;;;;;18.75;2.63;;;;;;;12.72;98.57;100891.47;4978886;28;20086;-70
2023/09/19 05:46:03;;;;;;;8.60;2.10;;;;;;;12.73;98.93;100890.50;4988826;28;20034;-69
2023/09/19 05:48:28;;;;;;;11.05;2.72;;;;;;;12.74;99.24;100884.91;4960062;28;20046;-70
2023/09/19 05:50:53;;;;;;;13.40;2.95;;;;;;;12.76;99.12;100877.44;4969179;28;20042;-69
2023/09/19 05:53:19;;;;;;;8.60;1.80;;;;;;;12.76;99.07;100877.44;4961447;28;20125;-70
2023/09/19 05:55:45;;;;;;;11.32;2.20;;;;;;;12.77;99.21;100872.84;4950251;29;20042;-69
2023/09/19 05:58:13;;;;;;;6.65;1.77;;;;;;;12.77;99.73;100862.78;4950585;28;20491;-70
2023/09/19 06:00:40;;;;;;;14.45;2.35;;;;;;;12.79;99.85;100873.59;4949699;28;20109;-70
2023/09/19 06:03:06;;;;;;;11.82;2.33;;;;;;;12.82;99.70;100878.78;4952292;28;20103;-69
2023/09/19 06:05:31;;;;;;;10.02;2.17;;;;;;;12.84;99.48;100878.69;5000676;28;20109;-70
2023/09/19 06:07:59;;;;;;;12.00;2.50;;;;;;;12.87;99.60;100879.31;4959758;28;20046;-69
2023/09/19 06:10:27;;;;;;;11.15;2.47;;;;;;;12.91;99.48;100882.63;4950336;29;20045;-70
2023/09/19 06:12:54;;;;;;;10.48;2.63;;;;;;;12.93;99.48;100881.53;4956188;28;20461;-69
2023/09/19 06:15:22;;;;;;;12.75;2.33;;;;;;;12.94;99.85;100883.25;4987748;28;20142;-70
2023/09/19 06:17:56;;;;;;;13.75;2.60;;;;;;;12.98;99.73;100887.50;4963177;28;20118;-69
2023/09/19 06:20:23;;;;;;;10.50;2.33;;;;;;;13.00;99.95;100893.69;4964999;28;20053;-70
2023/09/19 06:22:49;;;;;;;13.32;2.28;;;;;;;13.01;100.00;100886.38;4964982;28;20031;-70
2023/09/19 06:25:19;;;;;;;7.45;2.08;;;;;;;13.06;99.68;100891.47;4964073;28;20043;-69
2023/09/19 06:27:48;;;;;;;12.65;2.75;;;;;;;13.09;99.87;100894.78;4980915;28;20039;-68
2023/09/19 06:30:14;;;;;;;16.85;2.40;;;;;;;13.11;99.34;100901.00;4949405;29;20049;-69
2023/09/19 06:32:43;;;;;;;15.23;2.40;;;;;;;13.15;100.00;100907.97;4949773;28;20035;-70
2023/09/19 06:35:13;;;;;;;10.75;2.10;;;;;;;13.18;99.96;100915.88;4980878;28;20053;-70
2023/09/19 06:37:40;;;;;;;10.40;2.63;;;;;;;13.21;99.77;100921.09;4949776;28;20050;-70
2023/09/19 06:40:13;;;;;;;6.57;1.88;;;;;;;13.26;99.35;100909.84;4947750;28;20090;-70
2023/09/19 06:42:46;;;;;;;9.57;2.40;;;;;;;13.29;99.43;100909.59;4949754;29;20047;-69
2023/09/19 06:45:18;;;;;;;;;;;;;;;13.35;99.11;100917.28;4959056;28;20042;-69
2023/09/19 06:47:51;;;;;;;8.20;2.42;;;;;;;13.35;99.17;100933.66;4963066;28;19920;-69
2023/09/19 06:50:19;;;;;;;11.57;2.13;;;;;;;13.39;99.23;100916.03;4980321;28;20043;-70
2023/09/19 06:52:45;;;;;;;11.00;2.50;;;;;;;13.44;99.19;100926.56;4949562;28;20031;-69
2023/09/19 06:55:13;;;;;;;13.98;3.47;;;;;;;13.46;99.08;100924.56;4948880;29;20091;-69
2023/09/19 06:57:40;;;;;;;10.68;2.40;;;;;;;13.50;99.13;100918.72;4949860;28;20459;-70
2023/09/19 07:00:15;;;;;;;14.68;2.67;;;;;;;13.52;98.66;100915.84;4979727;28;20091;-69
2023/09/19 07:02:41;;;;;;;10.23;2.95;;;;;;;13.55;98.66;100914.72;4949200;28;20043;-69
2023/09/19 07:05:07;;;;;;;14.48;2.50;;;;;;;13.58;98.77;100918.09;4980547;28;20101;-70
2023/09/19 07:07:34;;;;;;;17.27;2.45;;;;;;;13.63;98.32;100917.69;4963960;28;20550;-70
2023/09/19 07:10:06;;;;;;;10.38;2.80;;;;;;;13.66;98.90;100909.22;4949064;29;20102;-70
2023/09/19 07:12:35;;;;;;;16.83;2.50;;;;;;;13.70;98.86;100924.38;4949342;28;20112;-69
2023/09/19 07:15:00;;;;;;;9.50;2.03;;;;;;;13.74;98.21;100926.72;4979634;28;20027;-69
2023/09/19 07:17:25;;;;;;;15.60;2.70;;;;;;;13.76;98.25;100927.47;4949911;28;20049;-71
2023/09/19 07:19:51;;;;;;;12.13;2.78;;;;;;;13.78;98.36;100925.47;4950022;29;20106;-69
2023/09/19 07:22:16;;;;;;;9.40;2.53;;;;;;;13.83;98.16;100930.53;4949571;28;20440;-68
2023/09/19 07:24:42;;;;;;;12.15;2.30;;;;;;;13.87;98.67;100931.16;4952458;28;20086;-70
2023/09/19 07:27:08;;;;;;;12.40;2.10;;;;;;;13.88;98.46;100927.41;4953161;29;20215;-69
2023/09/19 07:29:34;;;;;;;13.50;2.50;;;;;;;13.91;98.27;100925.28;4951665;28;20118;-69
2023/09/19 07:31:59;;;;;;;14.88;2.45;;;;;;;13.91;97.71;100922.56;4953054;29;20043;-70
2023/09/19 07:34:24;;;;;;;10.82;2.30;;;;;;;13.95;97.44;100910.38;4953438;28;20031;-69
2023/09/19 07:36:50;;;;;;;10.43;2.05;;;;;;;13.98;97.02;100904.59;4953184;29;20122;-71
2023/09/19 07:39:15;;;;;;;11.63;2.38;;;;;;;14.04;97.81;100906.84;4952758;28;20070;-70
2023/09/19 07:41:41;;;;;;;13.23;2.40;;;;;;;14.12;97.18;100919.84;4952352;28;20380;-70
2023/09/19 07:44:07;;;;;;;13.35;2.17;;;;;;;14.20;97.09;100925.53;4952726;28;20440;-69
2023/09/19 07:46:33;;;;;;;11.02;2.42;;;;;;;14.27;97.55;100920.41;4952343;28;20118;-69
2023/09/19 07:48:58;;;;;;;12.73;2.58;;;;;;;14.41;95.47;100921.91;4952870;28;20125;-69
2023/09/19 07:51:24;;;;;;;14.40;2.63;;;;;;;14.49;96.00;100923.00;4953439;29;20122;-69
2023/09/19 07:53:49;;;;;;;9.40;2.45;;;;;;;14.54;95.47;100917.13;4952673;28;20027;-69
2023/09/19 07:56:15;;;;;;;12.95;2.58;;;;;;;14.59;95.57;100925.81;4983262;28;20094;-69
2023/09/19 07:58:43;;;;;;;9.82;1.80;;;;;;;14.65;94.22;100921.69;4983837;28;20046;-69
2023/09/19 08:01:10;;;;;;;16.00;2.83;;;;;;;14.72;95.22;100929.19;4982930;28;20122;-70
2023/09/19 08:03:40;;;;;;;13.23;2.50;;;;;;;14.82;93.63;100928.38;4952312;28;20101;-71
2023/09/19 08:06:06;;;;;;;10.93;2.90;;;;;;;14.97;95.09;100935.25;4953078;29;20039;-69
2023/09/19 08:08:33;;;;;;;14.95;3.00;;;;;;;15.08;94.22;100928.81;4952249;28;20027;-69
2023/09/19 08:10:59;;;;;;;14.63;2.40;;;;;;;15.13;92.88;100935.59;4966996;28;20566;-70
2023/09/19 08:13:26;;;;;;;11.48;2.55;;;;;;;15.17;92.20;100937.06;4953063;29;20106;-69
2023/09/19 08:15:55;;;;;;;16.95;2.58;;;;;;;15.23;91.34;100938.38;4966914;28;20035;-70
2023/09/19 08:18:22;;;;;;;9.32;2.22;;;;;;;15.29;91.85;100937.81;4983483;28;20103;-69
2023/09/19 08:20:51;;;;;;;16.13;2.75;;;;;;;15.35;90.83;100929.03;4952088;28;20027;-68
2023/09/19 08:23:20;;;;;;;14.90;2.30;;;;;;;15.36;90.09;100930.78;4951920;28;20535;-70
2023/09/19 08:25:46;;;;;;;12.25;3.47;;;;;;;15.40;91.33;100929.50;4951755;29;20491;-69
2023/09/19 08:28:12;;;;;;;10.73;2.50;;;;;;;15.44;90.01;100930.09;4952672;28;20050;-69
2023/09/19 08:30:40;;;;;;;13.55;2.53;;;;;;;15.48;90.63;100928.75;4966099;28;20078;-71
2023/09/19 08:33:06;;;;;;;12.77;2.28;;;;;;;15.56;91.42;100929.78;4957354;28;20040;-71
2023/09/19 08:35:31;;;;;;;12.73;2.35;;;;;;;15.66;91.05;100929.84;4982167;28;20130;-71
2023/09/19 08:37:57;;;;;;;14.30;2.40;;;;;;;15.73;90.96;100928.28;4951972;28;20110;-71
2023/09/19 08:40:22;;;;;;;10.52;2.30;;;;;;;15.80;89.27;100929.44;4951536;28;20069;-71
2023/09/19 08:42:55;;;;;;;11.63;2.63;;;;;;;15.89;87.82;100927.72;4952117;28;20065;-72
2023/09/19 08:45:27;;;;;;;8.77;2.28;;;;;;;16.00;87.63;100933.06;4982603;28;20043;-72
2023/09/19 08:48:17;;;;;;;13.50;3.60;;;;;;;16.05;89.25;100935.38;4952516;28;20457;-71
2023/09/19 08:50:49;;;;;;;7.80;2.80;;;;;;;16.03;88.76;100929.16;4952070;29;20043;-72
2023/09/19 08:53:25;;;;;;;16.15;2.90;;;;;;;16.07;88.20;100916.88;4951454;28;20521;-72
2023/09/19 08:55:53;;;;;;;11.30;2.47;;;;;;;16.17;88.24;100933.34;4951181;29;20035;-71
2023/09/19 08:58:21;;;;;;;9.07;2.35;;;;;;;16.29;88.35;100937.69;4951651;28;20047;-72
2023/09/19 09:00:49;;;;;;;11.23;2.35;;;;;;;16.41;85.53;100928.25;4950542;28;20482;-71
2023/09/19 09:03:16;;;;;;;10.60;2.40;;;;;;;16.51;86.76;100922.78;4951493;28;20074;-72
2023/09/19 09:05:46;;;;;;;13.20;3.08;;;;;;;16.52;85.52;100928.09;4951564;29;20495;-72
2023/09/19 09:08:12;;;;;;;14.30;3.22;;;;;;;16.51;84.74;100926.38;4951034;28;20065;-71
2023/09/19 09:10:38;;;;;;;8.43;2.35;;;;;;;16.57;85.76;100925.78;4951023;28;20070;-71
2023/09/19 09:13:06;;;;;;;10.43;2.85;;;;;;;16.65;84.35;100935.19;4951249;28;20101;-71
2023/09/19 09:15:36;;;;;;;12.55;2.38;;;;;;;16.68;84.95;100938.47;4950674;29;20039;-72
2023/09/19 09:18:02;;;;;;;15.32;3.22;;;;;;;16.71;83.63;100924.44;4951225;28;20066;-71
2023/09/19 09:20:28;;;;;;;9.75;2.30;;;;;;;16.83;84.57;100931.53;4950971;29;20134;-71
2023/09/19 09:22:55;;;;;;;11.73;2.30;;;;;;;16.96;84.83;100931.19;4951570;28;20043;-71
2023/09/19 09:25:24;;;;;;;12.73;2.40;;;;;;;17.05;84.62;100935.78;4950312;28;20055;-71
2023/09/19 09:28:01;;;;;;;11.25;1.98;;;;;;;17.12;83.55;100932.44;4965841;28;20046;-71
2023/09/19 09:30:35;;;;;;;12.48;2.65;;;;;;;17.21;81.03;100931.53;4950362;29;20043;-71
2023/09/19 09:33:11;;;;;;;11.93;2.92;;;;;;;17.23;82.97;100919.34;4965836;28;20793;-72
2023/09/19 09:35:59;;;;;;;12.65;1.92;;;;;;;17.38;83.68;100905.09;4950886;29;20074;-72
2023/09/19 09:38:31;;;;;;;11.20;2.60;;;;;;;17.45;81.23;100903.47;4951164;28;20161;-72
2023/09/19 09:41:01;;;;;;;18.73;2.70;;;;;;;17.46;81.33;100911.56;4950173;28;20068;-72
2023/09/19 09:43:36;;;;;;;9.68;2.60;;;;;;;17.50;78.54;100906.63;4950676;28;20055;-72
2023/09/19 09:49:32;;;;;;;16.58;3.20;;;;;;;17.84;78.56;100909.59;4950568;28;20443;-72
2023/09/19 09:52:07;;;;;;;10.32;2.65;;;;;;;17.85;78.62;100916.81;4965689;28;20530;-71
2023/09/19 09:54:37;;;;;;;8.85;2.75;;;;;;;17.96;80.12;100913.84;4950625;28;20048;-72
2023/09/19 09:57:13;;;;;;;17.58;2.83;;;;;;;18.20;78.79;100899.44;4965054;28;20043;-71
2023/09/19 10:00:16;;;;;;;12.75;2.47;;;;;;;18.36;79.28;100918.81;4980127;28;20035;-72
2023/09/19 10:02:44;;;;;;;12.18;2.38;;;;;;;18.41;75.35;100920.25;4950419;28;20058;-72
2023/09/19 10:07:50;;;;;;;12.43;2.15;;;;;;;18.44;76.21;100919.94;4981260;28;20043;-71
2023/09/19 10:10:29;;;;;;;13.05;2.28;;;;;;;18.61;77.61;100922.66;4949674;28;20043;-71
2023/09/19 10:13:02;;;;;;;10.40;2.45;;;;;;;18.77;75.11;100915.53;4950893;29;20035;-72
2023/09/19 10:15:31;;;;;;;12.20;2.50;;;;;;;18.79;74.16;100922.63;4949592;29;20039;-72
2023/09/19 10:18:01;;;;;;;9.70;2.50;;;;;;;18.76;72.90;100930.34;4950165;28;20063;-71
2023/09/19 10:20:33;;;;;;;10.75;2.50;;;;;;;18.75;73.91;100935.00;4950004;29;20459;-71
2023/09/19 10:23:13;;;;;;;11.52;2.85;;;;;;;18.73;71.94;100920.50;4950178;28;20039;-71
2023/09/19 10:25:45;;;;;;;13.63;2.88;;;;;;;18.73;73.08;100917.75;4980473;28;20031;-71
2023/09/19 10:28:13;;;;;;;11.95;2.63;;;;;;;18.85;71.73;100910.09;4949880;29;20047;-72
2023/09/19 10:30:44;;;;;;;10.18;2.47;;;;;;;18.98;70.26;100902.25;4949164;28;20054;-72
2023/09/19 10:33:11;;;;;;;5.78;2.13;;;;;;;19.08;73.62;100905.72;4949812;28;20075;-71
2023/09/19 10:35:45;;;;;;;9.15;2.70;;;;;;;19.44;73.77;100905.50;4980800;28;20023;-72
2023/09/19 10:38:14;;;;;;;15.82;2.45;;;;;;;19.78;69.26;100899.97;4949615;28;20079;-71
2023/09/19 10:40:43;;;;;;;12.43;2.70;;;;;;;20.06;72.30;100906.03;4949118;28;20035;-72
2023/09/19 10:43:13;;;;;;;10.18;2.65;;;;;;;20.15;69.32;100917.97;4949707;28;20039;-72
2023/09/19 10:45:40;;;;;;;17.38;2.47;;;;;;;20.23;68.23;100909.66;4949165;28;20051;-72
2023/09/19 10:48:07;;;;;;;8.57;1.90;;;;;;;20.22;68.58;100901.53;4949704;28;20071;-72
2023/09/19 10:50:45;;;;;;;8.02;2.22;;;;;;;20.09;68.42;100902.91;4964285;28;20028;-72
2023/09/19 10:53:12;;;;;;;12.68;1.95;;;;;;;20.00;65.62;100900.31;4949601;28;20039;-72
2023/09/19 10:55:38;;;;;;;8.25;1.67;;;;;;;19.94;65.42;100887.19;4980265;28;20027;-71
2023/09/19 10:58:14;;;;;;;8.00;1.80;;;;;;;20.00;65.39;100898.41;4949037;28;20039;-72
2023/09/19 11:00:56;;;;;;;5.93;1.90;;;;;;;20.13;68.71;100898.78;4979914;28;20122;-72
2023/09/19 11:03:25;;;;;;;8.38;2.00;;;;;;;20.16;67.34;100893.97;4981046;28;20047;-72
2023/09/19 11:06:20;;;;;;;9.48;2.30;;;;;;;20.21;66.56;100883.25;4949632;29;20064;-72
2023/09/19 11:11:40;;;;;;;16.50;2.22;;;;;;;20.07;66.03;100860.78;4956520;28;20447;-73
2023/09/19 11:14:34;;;;;;;9.63;1.75;;;;;;;20.10;67.19;100852.19;4980429;28;20046;-71
2023/09/19 11:17:06;;;;;;;11.10;2.33;;;;;;;20.05;64.66;100853.72;4962374;28;20054;-72
2023/09/19 11:22:58;;;;;;;8.73;2.17;;;;;;;20.09;63.73;100849.56;4949320;28;20039;-72
2023/09/19 11:25:30;;;;;;;10.05;2.30;;;;;;;20.03;65.26;100848.38;4948993;28;20094;-72
2023/09/19 11:28:17;;;;;;;10.82;2.15;;;;;;;20.06;65.53;100855.47;4949498;28;20047;-70
2023/09/19 11:30:53;;;;;;;8.02;1.63;;;;;;;20.14;62.72;100847.16;4948749;28;20122;-72
2023/09/19 11:33:25;;;;;;;6.78;1.80;;;;;;;20.36;63.97;100837.28;4949289;28;20098;-72
2023/09/19 11:36:18;;;;;;;6.82;1.67;;;;;;;20.52;63.75;100828.16;4949754;28;20051;-71
2023/09/19 11:38:50;;;;;;;10.13;2.10;;;;;;;20.55;60.62;100825.88;4948880;28;20122;-72
2023/09/19 11:41:21;;;;;;;7.07;1.70;;;;;;;20.65;63.45;100836.72;4948873;28;20502;-73